This is the latest recevied weather packets stored in our database for station/object WA1TYB-13. If no packets are shown the sender has not sent any weather packets the latest 10 day(s).
| Time | Temp. | Humidity | Pressure | Rain* | Wind** | Luminosity | Snow |
|---|---|---|---|---|---|---|---|
| 1777877158 | 8.89° C | 47% | 1011.2 hPa | 0 mm | - | 0 W/m² | - |
| 1777876856 | 9.44° C | 46% | 1011.4 hPa | 0 mm | - | 0 W/m² | - |
| 1777876553 | 9.44° C | 45% | 1011.4 hPa | 0 mm | - | 0 W/m² | - |
| 1777876250 | 8.89° C | 45% | 1011.4 hPa | 0 mm | - | 0 W/m² | - |
| 1777875946 | 10° C | 44% | 1011.1 hPa | 0 mm | - | 0 W/m² | - |
| 1777875643 | 10° C | 43% | 1011.5 hPa | 0 mm | - | 0 W/m² | - |
| 1777875339 | 10° C | 44% | 1011.3 hPa | 0 mm | - | 0 W/m² | - |
| 1777875036 | 10° C | 43% | 1011.4 hPa | 0 mm | - | 0 W/m² | - |
| 1777874732 | 10° C | 42% | 1011.1 hPa | 0 mm | - | 0 W/m² | - |
| 1777874428 | 10.56° C | 41% | 1011.3 hPa | 0 mm | - | 0 W/m² | - |
| 1777874126 | 10° C | 43% | 1011.4 hPa | 0 mm | - | 0 W/m² | - |
| 1777873824 | 10° C | 44% | 1011.3 hPa | 0 mm | - | 0 W/m² | - |
| 1777873520 | 10° C | 44% | 1011.2 hPa | 0 mm | - | 0 W/m² | - |
| 1777873218 | 9.44° C | 45% | 1011.3 hPa | 0 mm | - | 0 W/m² | - |
| 1777872914 | 10.56° C | 40% | 1011.4 hPa | 0 mm | - | 0 W/m² | - |
| 1777872612 | 11.11° C | 37% | 1011.5 hPa | 0 mm | - | 0 W/m² | - |
| 1777872309 | 11.11° C | 37% | 1011.3 hPa | 0 mm | - | 0 W/m² | - |
| 1777872007 | 11.67° C | 34% | 1011.5 hPa | 0 mm | - | 0 W/m² | - |
| 1777871703 | 12.22° C | 32% | 1011.7 hPa | 0 mm | - | 0 W/m² | - |
| 1777871399 | 12.22° C | 31% | 1011.5 hPa | 0 mm | - | 0 W/m² | - |
| 1777871097 | 12.78° C | 29% | 1011.6 hPa | 0 mm | - | 0 W/m² | - |
| 1777870794 | 12.78° C | 30% | 1011.4 hPa | 0 mm | - | 0 W/m² | - |
| 1777870489 | 12.78° C | 28% | 1011.3 hPa | 0 mm | - | 0 W/m² | - |
| 1777870186 | 13.33° C | 27% | 1011.5 hPa | 0 mm | - | 0 W/m² | - |
| 1777869883 | 14.44° C | 26% | 1011.3 hPa | 0 mm | - | 0 W/m² | - |
* Rain latest hour (hover to see other rain measurements)
** Current wind speed in m/s (hover to see current wind gust speed)